Time;durP1;ratioP1;P1;durP2;ratioP2;P2;SDS_P1;SDS_P2;PMS_P1;PMS_P2;Temp;Humidity;BMP_temperature;BMP_pressure;BME280_temperature;BME280_humidity;BME280_pressure;Samples;Min_cycle;Max_cycle;Signal;HPM_P1;HPM_P2
2022/12/07 00:01:11;;;;;;;18.87;15.67;;;6.40;99.90;;;;;;5015008;28;20387;-79
2022/12/07 00:03:38;;;;;;;21.37;17.77;;;6.30;99.90;;;;;;5024407;28;20376;-79
2022/12/07 00:06:05;;;;;;;21.00;17.57;;;6.40;99.90;;;;;;4995607;28;20053;-79
2022/12/07 00:08:31;;;;;;;21.80;17.20;;;6.30;99.90;;;;;;4992428;28;20043;-79
2022/12/07 00:11:05;;;;;;;19.23;17.07;;;6.30;99.90;;;;;;5010185;28;20373;-79
2022/12/07 00:13:31;;;;;;;19.07;16.70;;;6.30;99.90;;;;;;4990969;28;20454;-78
2022/12/07 00:16:05;;;;;;;20.47;17.10;;;6.30;99.90;;;;;;4988218;28;20041;-79
2022/12/07 00:18:31;;;;;;;20.27;16.83;;;6.20;99.90;;;;;;4993677;28;20039;-79
2022/12/07 00:21:09;;;;;;;18.60;16.50;;;6.30;99.90;;;;;;4992426;28;20486;-79
2022/12/07 00:23:35;;;;;;;23.70;17.73;;;6.30;99.90;;;;;;5008953;28;20023;-80
2022/12/07 00:26:05;;;;;;;22.23;16.87;;;6.30;99.90;;;;;;4994631;28;20061;-80
2022/12/07 00:28:31;;;;;;;22.70;17.80;;;6.30;99.90;;;;;;4993773;28;20038;-79
2022/12/07 00:31:05;;;;;;;13.43;12.10;;;6.20;99.90;;;;;;4976911;28;20038;-79
2022/12/07 00:33:32;;;;;;;20.63;17.07;;;6.20;99.90;;;;;;4959684;28;20502;-79
2022/12/07 00:35:58;;;;;;;21.60;18.17;;;6.20;99.90;;;;;;4973183;28;21846;-79
2022/12/07 00:38:26;;;;;;;20.90;17.30;;;6.20;99.90;;;;;;4993478;28;20042;-79
2022/12/07 00:41:02;;;;;;;22.77;17.80;;;6.20;99.90;;;;;;5009366;28;20379;-79
2022/12/07 00:43:28;;;;;;;21.23;17.33;;;6.20;99.90;;;;;;5008705;28;20050;-78
2022/12/07 00:45:55;;;;;;;21.83;18.10;;;6.20;99.90;;;;;;4991686;28;20041;-79
2022/12/07 00:48:21;;;;;;;21.67;17.03;;;6.20;99.90;;;;;;4976403;28;20046;-79
2022/12/07 00:50:47;;;;;;;19.37;16.83;;;6.20;99.90;;;;;;4966562;28;20057;-79
2022/12/07 00:53:13;;;;;;;22.07;17.63;;;6.20;99.90;;;;;;4976320;28;20038;-79
2022/12/07 00:55:40;;;;;;;22.53;17.73;;;6.20;99.90;;;;;;4982174;28;20014;-79
2022/12/07 00:58:06;;;;;;;23.90;18.23;;;6.20;99.90;;;;;;4979456;28;20030;-79
2022/12/07 01:00:33;;;;;;;21.67;16.87;;;6.20;99.90;;;;;;4992386;28;20030;-79
2022/12/07 01:02:59;;;;;;;19.97;17.53;;;6.20;99.90;;;;;;4992966;28;20034;-79
2022/12/07 01:05:25;;;;;;;21.53;18.07;;;6.20;99.90;;;;;;4992450;28;20030;-79
2022/12/07 01:07:51;;;;;;;22.33;18.17;;;6.20;99.90;;;;;;4993084;28;20029;-79
2022/12/07 01:10:17;;;;;;;23.57;18.27;;;6.20;99.90;;;;;;4993555;28;20057;-79
2022/12/07 01:12:44;;;;;;;22.00;16.53;;;6.10;99.90;;;;;;4992781;28;20034;-80
2022/12/07 01:15:10;;;;;;;21.77;19.13;;;6.20;99.90;;;;;;4992868;28;20049;-79
2022/12/07 01:17:36;;;;;;;21.07;18.43;;;6.10;99.90;;;;;;4990906;28;20495;-79
2022/12/07 01:20:03;;;;;;;21.77;18.93;;;6.10;99.90;;;;;;4992019;28;20041;-79
2022/12/07 01:22:29;;;;;;;21.83;17.90;;;6.10;99.90;;;;;;4993758;28;20490;-80
2022/12/07 01:24:55;;;;;;;20.57;18.40;;;6.10;99.90;;;;;;5008302;28;20038;-79
2022/12/07 01:27:21;;;;;;;21.73;18.67;;;6.20;99.90;;;;;;4990935;28;20407;-80
2022/12/07 01:29:47;;;;;;;20.80;18.10;;;6.10;99.90;;;;;;4992465;28;20046;-79
2022/12/07 01:32:13;;;;;;;21.83;18.77;;;6.10;99.90;;;;;;4992358;28;20042;-79
2022/12/07 01:34:39;;;;;;;20.70;17.73;;;6.10;99.90;;;;;;4992768;28;20423;-79
2022/12/07 01:37:05;;;;;;;22.80;20.30;;;6.10;99.90;;;;;;4992907;28;20049;-79
2022/12/07 01:39:32;;;;;;;22.53;20.13;;;6.10;99.90;;;;;;4959430;28;20046;-79
2022/12/07 01:41:58;;;;;;;21.93;18.97;;;6.20;99.90;;;;;;4992636;28;20046;-79
2022/12/07 01:44:32;;;;;;;23.23;20.20;;;6.20;99.90;;;;;;4992213;28;20468;-79
2022/12/07 01:47:03;;;;;;;24.90;20.37;;;6.20;99.90;;;;;;4975801;28;20038;-79
2022/12/07 01:49:42;;;;;;;25.02;21.13;;;6.10;99.90;;;;;;4991538;28;20053;-79
2022/12/07 01:52:29;;;;;;;25.60;20.27;;;6.10;99.90;;;;;;4959442;28;20031;-79
2022/12/07 01:54:58;;;;;;;22.27;19.97;;;6.10;99.90;;;;;;4987556;28;20034;-79
2022/12/07 01:57:25;;;;;;;29.00;21.50;;;6.10;99.90;;;;;;4991936;28;20395;-79
2022/12/07 01:59:51;;;;;;;24.17;20.93;;;6.00;99.90;;;;;;4991917;28;20030;-79
2022/12/07 02:02:33;;;;;;;25.73;21.43;;;6.10;99.90;;;;;;4974500;28;20407;-78
2022/12/07 02:04:59;;;;;;;27.97;22.43;;;6.10;99.90;;;;;;4989653;28;20034;-79
2022/12/07 02:07:25;;;;;;;19.30;17.20;;;6.10;99.90;;;;;;4992369;28;20340;-79
2022/12/07 02:09:51;;;;;;;27.40;21.17;;;6.10;99.90;;;;;;5008082;28;20042;-79
2022/12/07 02:12:18;;;;;;;25.97;22.07;;;6.10;99.90;;;;;;4989999;28;20050;-79
2022/12/07 02:14:44;;;;;;;33.70;23.87;;;6.10;99.90;;;;;;4991769;28;20038;-80
2022/12/07 02:17:31;;;;;;;26.93;23.00;;;6.10;99.90;;;;;;4990708;28;20026;-79
2022/12/07 02:19:58;;;;;;;29.17;23.80;;;6.10;99.90;;;;;;4956673;28;20492;-79
2022/12/07 02:23:08;;;;;;;30.37;23.50;;;6.00;99.90;;;;;;4984995;28;20395;-79
2022/12/07 02:25:37;;;;;;;29.13;22.83;;;6.00;99.90;;;;;;4932753;29;20047;-79
2022/12/07 02:28:12;;;;;;;29.00;21.70;;;5.90;99.90;;;;;;4932758;29;20474;-79
2022/12/07 02:30:42;;;;;;;33.93;25.73;;;6.00;99.90;;;;;;4899042;29;20036;-79
2022/12/07 02:33:13;;;;;;;28.20;19.73;;;6.00;99.90;;;;;;4915111;29;20048;-78
2022/12/07 02:35:42;;;;;;;30.60;21.03;;;5.90;99.90;;;;;;4896718;29;20051;-79
2022/12/07 02:38:16;;;;;;;37.33;25.83;;;5.90;99.90;;;;;;4932673;29;20047;-79
2022/12/07 02:40:49;;;;;;;30.60;22.13;;;5.90;99.90;;;;;;4931547;29;20047;-78
2022/12/07 02:43:28;;;;;;;29.33;21.87;;;5.90;99.90;;;;;;4915660;29;20059;-79
2022/12/07 02:46:00;;;;;;;32.23;26.40;;;5.90;99.90;;;;;;4913740;29;20436;-78
2022/12/07 02:48:26;;;;;;;26.50;21.33;;;5.90;99.90;;;;;;4915576;29;20119;-78
2022/12/07 02:50:53;;;;;;;31.20;24.43;;;5.90;99.90;;;;;;4914618;29;20052;-79
2022/12/07 02:53:32;;;;;;;33.77;23.63;;;5.90;99.90;;;;;;4932588;29;20036;-79
2022/12/07 02:56:02;;;;;;;25.30;20.13;;;5.90;99.90;;;;;;4937992;28;20057;-79
2022/12/07 02:58:34;;;;;;;31.02;22.63;;;5.90;99.90;;;;;;4974409;28;20041;-79
2022/12/07 03:01:16;;;;;;;31.20;21.80;;;5.90;99.90;;;;;;5009175;28;20035;-79
2022/12/07 03:03:44;;;;;;;32.23;22.43;;;5.80;99.90;;;;;;4995111;28;20476;-79
2022/12/07 03:06:42;;;;;;;17.30;15.23;;;5.80;99.90;;;;;;4972956;28;20030;-79
2022/12/07 03:09:21;;;;;;;30.90;22.00;;;5.70;99.90;;;;;;4988137;28;20053;-79
2022/12/07 03:11:53;;;;;;;32.97;23.00;;;5.70;99.90;;;;;;4960973;28;20105;-79
2022/12/07 03:14:23;;;;;;;33.80;21.53;;;5.80;99.90;;;;;;5018388;28;20038;-79
2022/12/07 03:16:56;;;;;;;31.07;21.70;;;5.80;99.90;;;;;;4992361;28;20034;-80
2022/12/07 03:19:23;;;;;;;27.13;20.47;;;5.80;99.90;;;;;;4974135;28;20065;-79
2022/12/07 03:22:01;;;;;;;32.83;21.70;;;5.70;99.90;;;;;;5009725;28;20480;-79
2022/12/07 03:24:29;;;;;;;33.87;21.53;;;5.70;99.90;;;;;;4961641;28;20053;-79
2022/12/07 03:27:23;;;;;;;27.23;21.23;;;5.70;99.90;;;;;;4973097;28;20053;-79
2022/12/07 03:30:08;;;;;;;32.13;21.63;;;5.70;99.90;;;;;;5002051;28;20499;-79
2022/12/07 03:32:42;;;;;;;32.53;21.50;;;5.70;99.90;;;;;;4962608;28;20050;-79
2022/12/07 03:35:27;;;;;;;24.97;18.67;;;5.70;99.90;;;;;;4976788;28;20037;-79
2022/12/07 03:38:12;;;;;;;32.73;23.10;;;5.70;99.90;;;;;;4977608;28;20506;-79
2022/12/07 03:40:49;;;;;;;31.47;20.47;;;5.70;99.90;;;;;;4991425;28;20038;-79
2022/12/07 03:43:16;;;;;;;23.07;17.00;;;5.60;99.90;;;;;;5007437;28;20030;-79
2022/12/07 03:45:46;;;;;;;28.87;20.27;;;5.60;99.90;;;;;;4961666;28;20031;-78
2022/12/07 03:48:32;;;;;;;15.27;13.87;;;5.50;99.90;;;;;;4978634;28;20392;-79
2022/12/07 03:51:15;;;;;;;34.17;22.20;;;5.40;99.90;;;;;;4993020;28;20487;-79
2022/12/07 03:53:57;;;;;;;32.43;22.27;;;5.20;99.90;;;;;;4994276;28;20019;-79
2022/12/07 03:56:23;;;;;;;33.00;23.63;;;5.20;99.90;;;;;;4990182;28;20042;-79
2022/12/07 03:58:49;;;;;;;35.53;23.90;;;5.20;99.90;;;;;;4993953;28;20030;-79
2022/12/07 04:01:17;;;;;;;37.53;25.27;;;5.20;99.90;;;;;;4993140;28;20042;-79
2022/12/07 04:03:43;;;;;;;32.83;22.53;;;5.20;99.90;;;;;;4961843;28;20057;-79
2022/12/07 04:06:09;;;;;;;40.80;26.00;;;5.10;99.90;;;;;;4992595;28;20384;-79
2022/12/07 04:08:35;;;;;;;40.13;23.40;;;5.10;99.90;;;;;;5010199;28;20037;-78
2022/12/07 04:11:01;;;;;;;38.80;24.17;;;5.10;99.90;;;;;;4994533;28;20049;-78
2022/12/07 04:13:27;;;;;;;38.90;26.67;;;4.90;99.90;;;;;;4976209;28;20396;-78
2022/12/07 04:15:53;;;;;;;36.27;25.17;;;4.90;99.90;;;;;;4993444;28;20038;-78
2022/12/07 04:18:20;;;;;;;35.93;23.37;;;4.90;99.90;;;;;;4984244;28;20050;-79
2022/12/07 04:20:46;;;;;;;33.33;20.77;;;4.80;99.90;;;;;;4992333;28;20049;-78
2022/12/07 04:23:12;;;;;;;22.70;16.17;;;4.80;99.90;;;;;;4994429;28;20042;-78
2022/12/07 04:25:38;;;;;;;42.47;27.70;;;4.80;99.90;;;;;;5008934;28;20058;-78
2022/12/07 04:28:04;;;;;;;42.03;28.10;;;4.70;99.90;;;;;;5009399;28;20031;-78
2022/12/07 04:30:30;;;;;;;43.63;29.90;;;4.70;99.90;;;;;;4994330;28;20511;-78
2022/12/07 04:32:56;;;;;;;43.83;27.50;;;4.80;99.90;;;;;;4978367;28;20049;-79
2022/12/07 04:35:22;;;;;;;32.73;24.10;;;4.80;99.90;;;;;;4959758;28;20069;-78
2022/12/07 04:37:49;;;;;;;45.00;28.33;;;4.80;99.90;;;;;;4993110;28;20042;-78
2022/12/07 04:40:15;;;;;;;42.33;27.60;;;4.70;99.90;;;;;;4987808;28;20046;-78
2022/12/07 04:42:41;;;;;;;43.33;28.87;;;4.80;99.90;;;;;;4975540;28;20035;-78
2022/12/07 04:45:08;;;;;;;43.60;29.07;;;4.80;99.90;;;;;;4990036;28;20057;-79
2022/12/07 04:47:34;;;;;;;44.57;29.57;;;4.70;99.90;;;;;;4967320;28;20034;-79
2022/12/07 04:50:00;;;;;;;36.97;28.17;;;4.70;99.90;;;;;;4996713;28;20395;-78
2022/12/07 04:52:26;;;;;;;42.40;28.33;;;4.70;99.90;;;;;;4982793;28;20053;-80
2022/12/07 04:54:52;;;;;;;44.37;28.63;;;4.80;99.90;;;;;;4976422;28;20038;-80
2022/12/07 04:57:18;;;;;;;25.57;16.90;;;4.80;99.90;;;;;;5011368;28;20038;-79
2022/12/07 04:59:44;;;;;;;22.90;14.77;;;4.70;99.90;;;;;;5006108;28;20034;-79
2022/12/07 05:02:10;;;;;;;45.27;29.83;;;4.50;99.90;;;;;;4994953;28;20030;-79
2022/12/07 05:04:36;;;;;;;46.60;29.67;;;4.50;99.90;;;;;;4986668;28;20046;-79
2022/12/07 05:07:02;;;;;;;36.93;24.17;;;4.50;99.90;;;;;;4979418;28;20499;-79
2022/12/07 05:09:28;;;;;;;42.40;26.17;;;4.50;99.90;;;;;;5008867;28;20042;-79
2022/12/07 05:11:55;;;;;;;47.13;27.77;;;4.40;99.90;;;;;;4976262;28;20427;-79
2022/12/07 05:14:21;;;;;;;47.13;28.77;;;4.50;99.90;;;;;;4975942;28;20046;-79
2022/12/07 05:16:49;;;;;;;45.13;28.40;;;4.50;99.90;;;;;;5024824;28;20047;-79
2022/12/07 05:19:15;;;;;;;44.70;26.20;;;4.50;99.90;;;;;;5008443;28;20057;-79
2022/12/07 05:21:41;;;;;;;39.77;24.23;;;4.50;99.90;;;;;;5025457;28;20030;-79
2022/12/07 05:24:08;;;;;;;86.60;26.50;;;4.40;99.90;;;;;;5025161;28;20034;-79
2022/12/07 05:26:34;;;;;;;27.57;21.67;;;4.40;99.90;;;;;;5008487;28;20042;-79
2022/12/07 05:29:00;;;;;;;42.83;27.17;;;4.40;99.90;;;;;;5007505;28;20046;-79
2022/12/07 05:31:27;;;;;;;20.83;18.70;;;4.30;99.90;;;;;;4991828;28;20053;-79
2022/12/07 05:33:53;;;;;;;44.27;27.60;;;4.40;99.90;;;;;;4990839;28;20038;-80
2022/12/07 05:36:19;;;;;;;38.07;24.53;;;4.30;99.90;;;;;;5005613;28;20034;-79
2022/12/07 05:38:45;;;;;;;35.93;23.00;;;4.30;99.90;;;;;;4975901;28;20030;-79
2022/12/07 05:44:00;;;;;;;60.40;24.67;;;4.20;99.90;;;;;;4991567;28;20037;-80
2022/12/07 05:46:26;;;;;;;41.40;24.43;;;4.20;99.90;;;;;;5000450;28;20042;-79
2022/12/07 05:48:52;;;;;;;31.33;21.33;;;4.20;99.90;;;;;;5002960;28;20038;-79
2022/12/07 05:51:19;;;;;;;40.57;26.27;;;4.20;99.90;;;;;;4972901;28;20042;-79
2022/12/07 05:53:45;;;;;;;36.93;23.70;;;4.20;99.90;;;;;;4958740;28;20039;-80
2022/12/07 05:56:11;;;;;;;32.43;23.23;;;4.20;99.90;;;;;;4982266;28;20114;-80
2022/12/07 06:01:22;;;;;;;36.83;24.43;;;4.30;99.90;;;;;;5021184;28;20506;-79
2022/12/07 06:03:48;;;;;;;39.33;24.80;;;4.40;99.90;;;;;;5008272;28;20030;-79
2022/12/07 06:06:14;;;;;;;39.73;23.67;;;4.30;99.90;;;;;;4993391;28;20045;-79
2022/12/07 06:08:40;;;;;;;25.27;18.60;;;4.20;99.90;;;;;;4991651;28;20114;-79
2022/12/07 06:13:50;;;;;;;35.50;24.00;;;4.10;99.90;;;;;;4980554;28;20034;-78
2022/12/07 06:16:16;;;;;;;20.70;18.53;;;4.20;99.90;;;;;;4990605;28;20046;-79
2022/12/07 06:18:42;;;;;;;35.23;24.37;;;4.20;99.90;;;;;;5008112;28;20027;-79
2022/12/07 06:21:09;;;;;;;33.63;21.47;;;4.20;99.90;;;;;;5008216;28;20395;-79
2022/12/07 06:23:35;;;;;;;41.80;24.47;;;4.10;99.90;;;;;;4991496;28;20054;-79
2022/12/07 06:26:01;;;;;;;35.00;23.43;;;4.00;99.90;;;;;;5007515;28;20057;-79
2022/12/07 06:28:27;;;;;;;36.60;23.70;;;4.00;99.90;;;;;;4991782;28;20046;-79
2022/12/07 06:31:00;;;;;;;29.13;21.80;;;4.00;99.90;;;;;;4975194;28;20043;-79
2022/12/07 06:33:26;;;;;;;33.13;21.90;;;4.00;99.90;;;;;;4975093;28;20460;-78
2022/12/07 06:35:52;;;;;;;40.10;24.50;;;4.00;99.90;;;;;;4990523;28;20383;-81
2022/12/07 06:38:19;;;;;;;26.53;18.57;;;3.90;99.90;;;;;;4990420;28;20041;-81
2022/12/07 06:40:45;;;;;;;20.60;18.50;;;3.90;99.90;;;;;;4991728;28;20045;-80
2022/12/07 06:43:11;;;;;;;32.80;22.17;;;3.90;99.90;;;;;;4996025;28;20034;-80
2022/12/07 06:45:37;;;;;;;33.70;23.07;;;3.90;99.90;;;;;;5000023;28;20030;-80
2022/12/07 06:48:03;;;;;;;37.40;24.17;;;3.90;99.90;;;;;;4977172;28;20031;-80
2022/12/07 06:50:29;;;;;;;36.93;25.37;;;3.90;99.90;;;;;;4975062;28;20050;-80
2022/12/07 06:52:55;;;;;;;45.67;23.20;;;3.90;99.90;;;;;;4975159;28;20034;-79
2022/12/07 06:55:21;;;;;;;19.53;15.13;;;4.00;99.90;;;;;;4980010;28;20383;-82
2022/12/07 06:57:47;;;;;;;22.30;16.33;;;4.00;99.90;;;;;;4975916;28;20054;-79
2022/12/07 07:00:15;;;;;;;33.70;22.23;;;3.90;99.90;;;;;;4992539;28;20038;-79
2022/12/07 07:02:41;;;;;;;32.97;22.77;;;3.80;99.90;;;;;;4994939;28;20047;-79
2022/12/07 07:05:07;;;;;;;40.40;25.87;;;3.90;99.90;;;;;;4993659;28;20038;-79
2022/12/07 07:07:33;;;;;;;34.33;21.90;;;3.90;99.90;;;;;;4993848;28;20043;-77
2022/12/07 07:09:59;;;;;;;34.80;24.00;;;4.00;99.90;;;;;;4994796;28;20415;-77
2022/12/07 07:12:25;;;;;;;35.37;23.67;;;4.10;99.90;;;;;;4995198;28;20039;-80
2022/12/07 07:14:51;;;;;;;29.87;20.03;;;4.10;99.90;;;;;;4995673;28;20399;-77
2022/12/07 07:17:18;;;;;;;35.97;21.80;;;4.10;99.90;;;;;;5010035;28;20057;-80
2022/12/07 07:19:44;;;;;;;29.30;20.70;;;4.00;99.90;;;;;;5015212;28;20034;-80
2022/12/07 07:22:10;;;;;;;36.67;22.53;;;4.00;99.90;;;;;;5010139;28;20061;-80
2022/12/07 07:24:36;;;;;;;35.93;22.33;;;4.00;99.90;;;;;;5006954;28;20107;-80
2022/12/07 07:27:02;;;;;;;26.83;18.27;;;4.00;99.90;;;;;;4975230;28;20062;-77
2022/12/07 07:29:28;;;;;;;19.27;14.43;;;3.90;99.90;;;;;;4991364;28;20522;-80
2022/12/07 07:31:54;;;;;;;39.17;23.77;;;3.90;99.90;;;;;;4974784;28;20039;-80
2022/12/07 07:34:20;;;;;;;34.67;20.97;;;3.80;99.90;;;;;;4989488;28;20038;-81
2022/12/07 07:36:46;;;;;;;36.10;23.40;;;3.80;99.90;;;;;;4991154;28;20045;-80
2022/12/07 07:39:12;;;;;;;35.67;22.37;;;3.90;99.90;;;;;;4989298;28;20038;-80
2022/12/07 07:41:39;;;;;;;25.70;16.87;;;3.80;99.90;;;;;;4991254;28;20043;-80
2022/12/07 07:44:05;;;;;;;37.40;23.83;;;3.90;99.90;;;;;;5010097;28;20041;-80
2022/12/07 07:46:32;;;;;;;35.33;22.60;;;4.00;99.90;;;;;;4992888;28;20038;-80
2022/12/07 07:48:59;;;;;;;19.50;15.93;;;4.00;99.90;;;;;;5008624;28;20057;-79
2022/12/07 07:51:25;;;;;;;25.20;16.90;;;4.00;99.90;;;;;;5008873;28;20057;-80
2022/12/07 07:53:51;;;;;;;18.47;13.70;;;4.00;99.90;;;;;;4977743;28;20045;-79
2022/12/07 07:56:17;;;;;;;25.87;16.70;;;3.80;99.90;;;;;;4974509;28;20050;-82
2022/12/07 07:58:43;;;;;;;27.10;18.37;;;3.70;99.90;;;;;;4992046;28;20427;-80
2022/12/07 08:01:09;;;;;;;31.67;21.40;;;3.70;99.90;;;;;;4957696;28;20062;-81
2022/12/07 08:03:35;;;;;;;27.47;17.40;;;3.70;99.90;;;;;;4982205;28;20039;-81
2022/12/07 08:06:03;;;;;;;23.07;17.37;;;3.70;99.90;;;;;;4985197;28;20042;-82
2022/12/07 08:08:29;;;;;;;26.00;18.13;;;3.70;99.90;;;;;;4982610;28;20030;-81
2022/12/07 08:10:55;;;;;;;30.10;20.80;;;3.70;99.90;;;;;;4997304;28;20521;-81
2022/12/07 08:13:21;;;;;;;30.30;21.30;;;3.80;99.90;;;;;;5002347;28;20026;-81
2022/12/07 08:15:47;;;;;;;33.03;21.30;;;3.80;99.90;;;;;;4992640;28;20411;-81
2022/12/07 08:18:14;;;;;;;30.60;20.47;;;3.80;99.90;;;;;;4981256;28;20035;-81
2022/12/07 08:20:40;;;;;;;39.90;22.03;;;3.80;99.90;;;;;;4959167;28;20458;-81
2022/12/07 08:23:07;;;;;;;31.20;21.97;;;3.80;99.90;;;;;;4995109;28;20038;-82
2022/12/07 08:25:33;;;;;;;37.70;21.67;;;3.90;99.90;;;;;;4958753;28;20053;-81
2022/12/07 08:28:00;;;;;;;35.30;22.13;;;3.90;99.90;;;;;;4972806;28;20051;-81
2022/12/07 08:30:27;;;;;;;26.70;18.33;;;3.90;99.90;;;;;;4983164;28;20046;-81
2022/12/07 08:32:53;;;;;;;32.43;21.63;;;3.90;99.90;;;;;;4990463;28;20423;-81
2022/12/07 08:35:19;;;;;;;34.60;19.87;;;3.80;99.90;;;;;;4990131;28;20383;-80
2022/12/07 08:37:46;;;;;;;33.90;19.90;;;3.80;99.90;;;;;;4999806;28;20035;-80
2022/12/07 08:40:15;;;;;;;24.93;17.67;;;3.70;99.90;;;;;;4993404;28;20065;-79
2022/12/07 08:42:44;;;;;;;32.47;20.40;;;3.60;99.90;;;;;;4975750;28;20057;-81
2022/12/07 08:45:11;;;;;;;30.73;19.57;;;3.60;99.90;;;;;;4996873;28;20026;-81
2022/12/07 08:47:40;;;;;;;32.53;21.10;;;3.60;99.90;;;;;;4972804;28;20051;-80
2022/12/07 08:50:07;;;;;;;15.83;14.17;;;3.70;99.90;;;;;;4989956;28;20408;-80
2022/12/07 08:52:34;;;;;;;33.83;21.63;;;3.70;99.90;;;;;;4978793;28;20039;-81
2022/12/07 08:55:00;;;;;;;22.50;16.20;;;3.60;99.90;;;;;;5004087;28;20034;-80
2022/12/07 08:57:29;;;;;;;12.73;11.50;;;3.60;99.90;;;;;;4996416;28;20038;-80
2022/12/07 08:59:55;;;;;;;19.07;15.20;;;3.50;99.90;;;;;;5009694;28;20045;-80
2022/12/07 09:02:21;;;;;;;30.50;20.00;;;3.50;99.90;;;;;;4989748;28;20045;-79
2022/12/07 09:04:47;;;;;;;20.90;14.93;;;3.50;99.90;;;;;;5008212;28;20523;-80
2022/12/07 09:07:13;;;;;;;24.93;17.47;;;3.60;99.90;;;;;;4995527;28;20034;-80
2022/12/07 09:09:40;;;;;;;35.47;22.10;;;3.60;99.90;;;;;;5009232;28;20387;-80
2022/12/07 09:12:06;;;;;;;35.50;22.50;;;3.60;99.90;;;;;;5008117;28;20042;-81
2022/12/07 09:14:32;;;;;;;22.60;15.80;;;3.70;99.90;;;;;;4974486;28;20031;-80
2022/12/07 09:17:08;;;;;;;28.40;20.17;;;3.80;99.90;;;;;;4989287;28;20046;-80
2022/12/07 09:19:35;;;;;;;30.63;21.53;;;3.90;99.90;;;;;;4989083;28;20035;-89
2022/12/07 09:22:01;;;;;;;30.73;20.07;;;3.90;99.90;;;;;;4968157;28;20042;-80
2022/12/07 09:24:27;;;;;;;32.23;20.77;;;3.90;99.90;;;;;;5004009;28;20035;-79
2022/12/07 09:26:53;;;;;;;34.60;21.87;;;4.00;99.90;;;;;;5005432;28;20054;-79
2022/12/07 09:29:19;;;;;;;30.30;20.57;;;4.00;99.90;;;;;;4973860;28;20039;-79
2022/12/07 09:31:45;;;;;;;29.80;20.53;;;3.90;99.90;;;;;;5002678;28;20049;-79
2022/12/07 09:34:11;;;;;;;32.60;21.77;;;3.90;99.90;;;;;;4990855;28;20038;-79
2022/12/07 09:36:38;;;;;;;35.73;21.53;;;3.90;99.90;;;;;;4975893;28;20042;-79
2022/12/07 09:39:04;;;;;;;24.83;16.30;;;4.00;99.90;;;;;;4992594;28;20480;-79
2022/12/07 09:41:31;;;;;;;27.63;18.33;;;4.00;99.90;;;;;;4996201;28;20026;-80
2022/12/07 09:44:05;;;;;;;27.33;21.07;;;4.00;99.90;;;;;;4999264;28;20511;-79
2022/12/07 09:46:36;;;;;;;30.83;21.57;;;4.00;99.90;;;;;;5006747;28;20030;-79
2022/12/07 09:49:02;;;;;;;;;;;4.10;99.90;;;;;;5003551;28;20035;-79
2022/12/07 09:51:28;;;;;;;26.77;18.93;;;4.10;99.90;;;;;;4992270;28;19953;-80
2022/12/07 09:53:56;;;;;;;34.20;20.40;;;4.30;99.90;;;;;;4975108;28;20034;-79
2022/12/07 09:56:22;;;;;;;33.17;21.53;;;4.30;99.90;;;;;;4988437;28;20046;-79
2022/12/07 09:58:48;;;;;;;31.13;21.60;;;4.30;99.90;;;;;;4991759;28;20026;-81
2022/12/07 10:01:19;;;;;;;29.77;20.93;;;4.40;99.90;;;;;;4983793;28;20038;-79
2022/12/07 10:03:49;;;;;;;32.83;20.80;;;4.40;99.90;;;;;;4974505;28;20034;-81
2022/12/07 10:06:16;;;;;;;36.80;22.83;;;4.40;99.90;;;;;;4980811;28;20030;-80
2022/12/07 10:08:43;;;;;;;34.73;22.83;;;4.60;99.90;;;;;;4991618;28;20042;-80
2022/12/07 10:11:10;;;;;;;29.50;18.90;;;4.50;99.90;;;;;;5008187;28;20031;-79
2022/12/07 10:13:38;;;;;;;29.57;20.27;;;4.50;99.90;;;;;;4990703;28;20030;-80
2022/12/07 10:16:04;;;;;;;33.50;22.07;;;4.40;99.90;;;;;;4999799;28;20407;-79
2022/12/07 10:18:37;;;;;;;29.30;21.50;;;4.30;99.90;;;;;;5001592;28;20035;-79
2022/12/07 10:21:13;;;;;;;28.23;20.83;;;4.50;99.90;;;;;;4992820;28;20034;-79
2022/12/07 10:23:41;;;;;;;30.00;21.17;;;4.70;99.90;;;;;;5008419;28;20022;-79
2022/12/07 10:26:40;;;;;;;33.23;22.63;;;4.80;99.90;;;;;;5007927;28;20053;-80
2022/12/07 10:29:17;;;;;;;28.93;21.27;;;4.90;99.90;;;;;;4989174;28;20042;-80
2022/12/07 10:31:44;;;;;;;29.07;20.60;;;5.10;99.90;;;;;;4988656;28;20415;-79
2022/12/07 10:34:23;;;;;;;27.10;19.43;;;5.10;99.90;;;;;;4989680;28;20111;-79
2022/12/07 10:36:50;;;;;;;30.87;21.60;;;5.10;99.90;;;;;;4989979;28;20045;-80
2022/12/07 10:39:23;;;;;;;27.93;21.03;;;5.10;99.90;;;;;;4973246;28;20053;-79
2022/12/07 10:41:56;;;;;;;22.57;18.87;;;5.20;99.90;;;;;;4989993;28;20471;-81
2022/12/07 10:44:24;;;;;;;30.67;21.20;;;5.10;99.90;;;;;;4957615;28;20050;-79
2022/12/07 10:47:29;;;;;;;27.63;21.70;;;5.10;99.90;;;;;;4988772;28;20050;-79
2022/12/07 10:50:20;;;;;;;29.90;21.00;;;5.20;99.90;;;;;;4932423;29;20035;-80
2022/12/07 10:52:56;;;;;;;27.05;21.02;;;5.30;99.90;;;;;;4930963;29;20047;-79
2022/12/07 10:55:43;;;;;;;22.03;17.27;;;5.30;99.90;;;;;;4931701;29;20401;-81
2022/12/07 10:58:37;;;;;;;21.20;15.47;;;5.30;99.90;;;;;;4927269;29;20035;-80
2022/12/07 11:01:06;;;;;;;29.93;20.33;;;5.30;99.90;;;;;;4930413;28;20044;-81
2022/12/07 11:03:53;;;;;;;24.40;19.30;;;5.30;99.90;;;;;;4946637;29;20035;-80
2022/12/07 11:06:22;;;;;;;32.10;19.00;;;5.40;99.90;;;;;;4925204;29;20044;-80
2022/12/07 11:08:55;;;;;;;23.80;19.13;;;5.40;99.90;;;;;;4909953;29;20044;-80
2022/12/07 11:11:34;;;;;;;27.70;19.53;;;5.40;99.90;;;;;;4913291;29;20536;-80
2022/12/07 11:14:14;;;;;;;25.30;19.57;;;5.40;99.90;;;;;;4913238;29;20122;-79
2022/12/07 11:17:11;;;;;;;26.17;21.23;;;5.50;99.90;;;;;;4896966;29;20036;-80
2022/12/07 11:19:55;;;;;;;25.73;19.73;;;5.60;99.90;;;;;;4895331;29;20040;-80
2022/12/07 11:22:45;;;;;;;27.77;21.53;;;5.70;99.90;;;;;;4910731;29;20040;-80
2022/12/07 11:25:51;;;;;;;31.73;23.40;;;5.70;99.90;;;;;;4913394;29;20529;-80
2022/12/07 11:28:30;;;;;;;26.53;23.87;;;5.70;99.90;;;;;;4946854;28;20055;-80
2022/12/07 11:31:16;;;;;;;27.30;22.73;;;5.90;99.90;;;;;;4955866;28;20505;-80
2022/12/07 11:33:58;;;;;;;26.57;21.67;;;5.90;99.90;;;;;;4908976;29;20039;-80
2022/12/07 11:36:36;;;;;;;24.80;20.47;;;5.90;99.90;;;;;;4907124;29;20043;-80
2022/12/07 11:39:05;;;;;;;29.97;21.17;;;6.00;99.90;;;;;;4943407;28;20048;-80
2022/12/07 11:41:35;;;;;;;29.03;21.50;;;6.10;99.90;;;;;;4916814;29;20038;-80
2022/12/07 11:44:30;;;;;;;26.63;21.20;;;6.30;99.90;;;;;;4938475;29;20042;-82
2022/12/07 11:47:08;;;;;;;24.30;20.70;;;6.30;99.90;;;;;;4938921;28;20444;-81
2022/12/07 11:49:53;;;;;;;25.90;20.57;;;6.30;99.90;;;;;;4951578;28;20486;-80
2022/12/07 11:52:37;;;;;;;26.67;20.73;;;6.40;99.90;;;;;;4953373;29;20047;-79
2022/12/07 11:55:15;;;;;;;25.37;18.83;;;6.30;99.90;;;;;;4956509;28;20046;-80
2022/12/07 11:57:44;;;;;;;20.40;16.97;;;6.30;99.90;;;;;;4925454;29;20477;-80
2022/12/07 12:00:16;;;;;;;18.63;16.50;;;6.30;99.90;;;;;;4948942;28;20032;-80
2022/12/07 12:03:09;;;;;;;24.87;19.83;;;6.30;99.90;;;;;;4953731;28;20034;-80
2022/12/07 12:05:35;;;;;;;24.23;20.03;;;6.30;99.90;;;;;;4963307;28;20034;-80
2022/12/07 12:08:21;;;;;;;21.63;18.93;;;6.30;99.90;;;;;;4959470;28;20527;-79
2022/12/07 12:11:23;;;;;;;25.20;19.53;;;6.30;99.90;;;;;;4983365;28;20054;-79
2022/12/07 12:14:41;;;;;;;22.33;18.63;;;6.50;99.90;;;;;;4975521;28;20050;-80
2022/12/07 12:17:20;;;;;;;21.47;18.80;;;6.50;99.90;;;;;;5018162;28;20033;-79
2022/12/07 12:20:11;;;;;;;21.90;19.37;;;6.50;99.90;;;;;;5019135;28;20033;-80
2022/12/07 12:22:40;;;;;;;20.65;18.52;;;6.60;99.90;;;;;;5015295;28;20576;-79
2022/12/07 12:25:15;;;;;;;19.93;17.83;;;6.60;99.90;;;;;;5011805;28;20382;-80
2022/12/07 12:27:41;;;;;;;19.70;17.70;;;6.70;99.90;;;;;;4991779;28;20275;-80
2022/12/07 12:30:31;;;;;;;19.27;16.67;;;6.70;99.90;;;;;;5020805;28;20107;-80
2022/12/07 12:33:25;;;;;;;23.00;18.27;;;6.70;99.90;;;;;;5011139;28;20155;-81
2022/12/07 12:36:16;;;;;;;20.20;18.10;;;6.80;99.90;;;;;;5015032;28;20497;-79
2022/12/07 12:38:49;;;;;;;18.80;16.60;;;6.90;99.90;;;;;;5026164;28;20560;-80
2022/12/07 12:42:05;;;;;;;21.77;19.47;;;6.70;99.90;;;;;;5028051;28;20390;-80
2022/12/07 12:44:33;;;;;;;22.60;18.87;;;6.80;99.90;;;;;;5026475;28;20045;-79
2022/12/07 12:47:01;;;;;;;24.83;20.03;;;6.80;99.90;;;;;;5029760;28;20036;-80
2022/12/07 12:49:38;;;;;;;19.10;16.30;;;6.90;99.90;;;;;;5016882;28;20049;-79
2022/12/07 12:52:40;;;;;;;17.93;16.13;;;6.90;99.90;;;;;;5000978;28;20058;-79
2022/12/07 12:55:07;;;;;;;19.50;17.50;;;6.80;99.90;;;;;;5026285;28;20038;-80
2022/12/07 12:57:33;;;;;;;23.70;17.93;;;6.90;99.90;;;;;;4990762;28;20395;-80
2022/12/07 13:00:00;;;;;;;23.53;19.27;;;6.90;99.90;;;;;;4975193;28;20054;-80
2022/12/07 13:02:33;;;;;;;21.23;17.43;;;7.10;99.90;;;;;;4956562;28;20041;-80
2022/12/07 13:05:14;;;;;;;20.33;17.53;;;7.10;99.90;;;;;;5007352;28;20034;-80